createdAt,value
2023-03-25T00:08:57.761Z,339
2023-03-25T00:28:57.736Z,338
2023-03-25T00:48:57.748Z,339
2023-03-25T01:08:57.795Z,335
2023-03-25T01:28:57.802Z,336
2023-03-25T01:48:57.838Z,334
2023-03-25T02:08:57.846Z,334
2023-03-25T02:28:57.916Z,335
2023-03-25T02:48:57.891Z,330
2023-03-25T03:08:57.920Z,336
2023-03-25T03:28:57.993Z,333
2023-03-25T03:48:57.962Z,332
2023-03-25T04:08:58.053Z,332
2023-03-25T04:28:58.713Z,331
2023-03-25T04:48:58.066Z,331
2023-03-25T05:08:58.065Z,332
2023-03-25T05:28:58.290Z,331
2023-03-25T05:48:58.112Z,326
2023-03-25T06:08:58.155Z,329
2023-03-25T06:28:58.199Z,330
2023-03-25T06:48:58.190Z,327
2023-03-25T07:08:58.218Z,327
2023-03-25T07:28:58.267Z,333
2023-03-25T07:48:58.322Z,330
2023-03-25T08:08:58.336Z,328
2023-03-25T08:28:58.360Z,328
2023-03-25T08:48:58.361Z,333
2023-03-25T09:08:58.373Z,331
2023-03-25T09:28:58.414Z,327
2023-03-25T09:48:58.436Z,333
2023-03-25T10:08:58.467Z,331
2023-03-25T10:28:58.473Z,330
2023-03-25T10:48:58.515Z,328
2023-03-25T11:08:58.563Z,319
2023-03-25T11:28:58.548Z,323
2023-03-25T11:48:58.561Z,325
2023-03-25T12:08:58.604Z,330
2023-03-25T12:28:58.632Z,333
2023-03-25T12:48:58.715Z,335
2023-03-25T13:08:58.695Z,333
2023-03-25T13:28:58.717Z,332
2023-03-25T13:48:58.713Z,331
2023-03-25T14:08:58.757Z,333
2023-03-25T14:28:58.771Z,334
2023-03-25T14:48:58.759Z,337
2023-03-25T15:08:58.815Z,334
2023-03-25T15:28:58.832Z,344
2023-03-25T15:48:58.824Z,352
2023-03-25T16:08:58.865Z,355
2023-03-25T16:28:58.896Z,362
2023-03-25T16:48:58.899Z,365
2023-03-25T17:08:58.935Z,368
2023-03-25T17:28:58.953Z,376
2023-03-25T17:48:59.000Z,379
2023-03-25T18:08:59.035Z,381
2023-03-25T18:28:59.077Z,381
2023-03-25T18:48:59.109Z,384
2023-03-25T19:08:59.117Z,387
2023-03-25T19:28:59.130Z,382
2023-03-25T19:48:59.134Z,383
2023-03-25T20:08:59.162Z,383
2023-03-25T20:28:59.257Z,379
2023-03-25T20:48:59.254Z,378
2023-03-25T21:09:02.945Z,379
2023-03-25T21:28:59.303Z,385
2023-03-25T21:48:59.302Z,395
2023-03-25T22:08:59.330Z,414
2023-03-25T22:28:59.351Z,450
2023-03-25T22:48:59.383Z,497
2023-03-25T23:08:59.398Z,550
2023-03-25T23:28:59.421Z,627
2023-03-25T23:48:59.444Z,696
